sensor_id;sensor_type;location;lat;lon;timestamp;pressure;altitude;pressure_sealevel;temperature;humidity
63582;BME280;49727;51.078;17.066;2022-12-07T00:11:19;99740.41;;;1.82;81.40
63582;BME280;49727;51.078;17.066;2022-12-07T00:26:23;99721.81;;;1.74;81.34
63582;BME280;49727;51.078;17.066;2022-12-07T00:41:25;99713.81;;;1.64;81.46
63582;BME280;49727;51.078;17.066;2022-12-07T00:56:28;99714.69;;;1.64;81.07
63582;BME280;49727;51.078;17.066;2022-12-07T01:11:29;99716.09;;;1.68;81.62
63582;BME280;49727;51.078;17.066;2022-12-07T01:26:30;99709.91;;;1.58;81.27
63582;BME280;49727;51.078;17.066;2022-12-07T01:41:33;99705.16;;;1.52;81.90
63582;BME280;49727;51.078;17.066;2022-12-07T01:56:34;99711.72;;;1.58;81.60
63582;BME280;49727;51.078;17.066;2022-12-07T02:11:35;99720.41;;;1.58;81.65
63582;BME280;49727;51.078;17.066;2022-12-07T02:26:40;99711.41;;;1.40;81.31
63582;BME280;49727;51.078;17.066;2022-12-07T02:41:51;99715.72;;;1.29;81.43
63582;BME280;49727;51.078;17.066;2022-12-07T03:12:06;99700.69;;;1.20;81.74
63582;BME280;49727;51.078;17.066;2022-12-07T03:27:14;99699.97;;;1.29;81.80
63582;BME280;49727;51.078;17.066;2022-12-07T03:42:16;99681.47;;;1.31;82.21
63582;BME280;49727;51.078;17.066;2022-12-07T03:57:17;99677.06;;;1.20;81.96
63582;BME280;49727;51.078;17.066;2022-12-07T04:12:18;99675.78;;;1.14;82.18
63582;BME280;49727;51.078;17.066;2022-12-07T04:27:18;99683.09;;;1.11;81.93
63582;BME280;49727;51.078;17.066;2022-12-07T04:42:19;99682.09;;;1.12;82.28
63582;BME280;49727;51.078;17.066;2022-12-07T04:57:19;99674.72;;;1.17;82.29
63582;BME280;49727;51.078;17.066;2022-12-07T05:12:19;99670.41;;;1.16;82.33
63582;BME280;49727;51.078;17.066;2022-12-07T05:27:20;99672.47;;;1.12;82.17
63582;BME280;49727;51.078;17.066;2022-12-07T05:42:20;99662.63;;;1.26;82.72
63582;BME280;49727;51.078;17.066;2022-12-07T05:57:21;99667.78;;;1.27;82.63
63582;BME280;49727;51.078;17.066;2022-12-07T06:12:21;99664.91;;;1.30;82.88
63582;BME280;49727;51.078;17.066;2022-12-07T06:27:34;99661.19;;;1.33;82.11
63582;BME280;49727;51.078;17.066;2022-12-07T06:42:35;99667.00;;;1.37;82.17
63582;BME280;49727;51.078;17.066;2022-12-07T06:57:35;99662.75;;;1.35;81.68
63582;BME280;49727;51.078;17.066;2022-12-07T07:12:36;99656.72;;;1.45;81.19
63582;BME280;49727;51.078;17.066;2022-12-07T07:27:36;99661.97;;;1.45;81.34
63582;BME280;49727;51.078;17.066;2022-12-07T07:42:37;99654.50;;;1.73;80.01
63582;BME280;49727;51.078;17.066;2022-12-07T07:57:39;99661.41;;;2.16;79.74
63582;BME280;49727;51.078;17.066;2022-12-07T08:12:41;99674.56;;;3.18;79.32
63582;BME280;49727;51.078;17.066;2022-12-07T08:28:00;99678.00;;;2.99;77.08
63582;BME280;49727;51.078;17.066;2022-12-07T08:43:01;99663.59;;;9.54;73.66
63582;BME280;49727;51.078;17.066;2022-12-07T08:58:02;99653.66;;;9.94;65.11
63582;BME280;49727;51.078;17.066;2022-12-07T09:13:03;99655.00;;;17.68;56.42
63582;BME280;49727;51.078;17.066;2022-12-07T09:28:03;99615.91;;;11.90;53.50
63582;BME280;49727;51.078;17.066;2022-12-07T09:43:04;99600.47;;;9.71;53.52
63582;BME280;49727;51.078;17.066;2022-12-07T09:58:05;99598.94;;;6.35;58.32
63582;BME280;49727;51.078;17.066;2022-12-07T10:28:16;99552.94;;;4.67;62.44
63582;BME280;49727;51.078;17.066;2022-12-07T10:43:18;99550.91;;;3.85;64.78
63582;BME280;49727;51.078;17.066;2022-12-07T11:13:27;99545.03;;;3.25;66.61
63582;BME280;49727;51.078;17.066;2022-12-07T11:44:00;99531.31;;;3.01;68.94
63582;BME280;49727;51.078;17.066;2022-12-07T11:59:06;99514.72;;;3.11;69.44
63582;BME280;49727;51.078;17.066;2022-12-07T12:29:39;99526.06;;;3.31;70.61
63582;BME280;49727;51.078;17.066;2022-12-07T12:45:03;99511.38;;;2.99;70.82
63582;BME280;49727;51.078;17.066;2022-12-07T13:15:34;99509.84;;;2.96;70.72
63582;BME280;49727;51.078;17.066;2022-12-07T13:30:45;99513.28;;;2.87;71.02
63582;BME280;49727;51.078;17.066;2022-12-07T13:45:56;99516.34;;;2.92;70.75
63582;BME280;49727;51.078;17.066;2022-12-07T14:00:57;99531.56;;;2.79;71.23
63582;BME280;49727;51.078;17.066;2022-12-07T14:15:58;99518.53;;;2.67;70.75
63582;BME280;49727;51.078;17.066;2022-12-07T14:30:59;99500.25;;;2.56;71.47
63582;BME280;49727;51.078;17.066;2022-12-07T14:46:00;99511.56;;;2.37;71.62
63582;BME280;49727;51.078;17.066;2022-12-07T15:01:03;99526.13;;;2.10;71.24
63582;BME280;49727;51.078;17.066;2022-12-07T15:16:05;99528.56;;;2.02;71.41
63582;BME280;49727;51.078;17.066;2022-12-07T15:31:15;99545.19;;;2.02;72.25
63582;BME280;49727;51.078;17.066;2022-12-07T15:46:16;99544.31;;;2.23;72.40
63582;BME280;49727;51.078;17.066;2022-12-07T16:01:18;99549.94;;;2.18;71.89
63582;BME280;49727;51.078;17.066;2022-12-07T16:16:19;99563.63;;;1.91;72.26
63582;BME280;49727;51.078;17.066;2022-12-07T16:31:24;99562.88;;;1.58;72.29
63582;BME280;49727;51.078;17.066;2022-12-07T16:46:25;99570.03;;;1.35;73.53
63582;BME280;49727;51.078;17.066;2022-12-07T17:01:26;99568.59;;;1.10;73.90
63582;BME280;49727;51.078;17.066;2022-12-07T17:16:31;99573.47;;;0.71;73.49
63582;BME280;49727;51.078;17.066;2022-12-07T17:31:32;99570.53;;;0.41;74.57
63582;BME280;49727;51.078;17.066;2022-12-07T17:46:32;99570.41;;;0.20;74.88
63582;BME280;49727;51.078;17.066;2022-12-07T18:01:33;99570.50;;;-0.04;75.49
63582;BME280;49727;51.078;17.066;2022-12-07T18:16:33;99566.56;;;-0.10;75.89
63582;BME280;49727;51.078;17.066;2022-12-07T18:31:34;99576.34;;;-0.12;75.88
63582;BME280;49727;51.078;17.066;2022-12-07T18:46:35;99580.47;;;-0.32;75.97
63582;BME280;49727;51.078;17.066;2022-12-07T19:01:36;99573.25;;;-0.53;76.22
63582;BME280;49727;51.078;17.066;2022-12-07T19:16:37;99573.03;;;-0.49;76.77
63582;BME280;49727;51.078;17.066;2022-12-07T19:31:37;99570.84;;;-0.31;76.82
63582;BME280;49727;51.078;17.066;2022-12-07T19:46:39;99583.69;;;-0.28;77.28
63582;BME280;49727;51.078;17.066;2022-12-07T20:01:40;99583.94;;;-0.20;77.28
63582;BME280;49727;51.078;17.066;2022-12-07T20:16:41;99581.09;;;-0.06;77.60
63582;BME280;49727;51.078;17.066;2022-12-07T20:31:45;99575.94;;;-0.30;77.47
63582;BME280;49727;51.078;17.066;2022-12-07T20:46:46;99596.00;;;-0.42;78.20
63582;BME280;49727;51.078;17.066;2022-12-07T21:01:47;99590.78;;;0.39;78.78
63582;BME280;49727;51.078;17.066;2022-12-07T21:16:47;99586.25;;;1.08;78.17
63582;BME280;49727;51.078;17.066;2022-12-07T21:31:48;99582.34;;;1.34;77.08
63582;BME280;49727;51.078;17.066;2022-12-07T21:46:48;99593.94;;;1.53;76.82
63582;BME280;49727;51.078;17.066;2022-12-07T22:01:50;99611.94;;;1.58;76.65
63582;BME280;49727;51.078;17.066;2022-12-07T22:16:51;99618.22;;;1.66;76.31
63582;BME280;49727;51.078;17.066;2022-12-07T22:31:51;99622.38;;;1.69;76.46
63582;BME280;49727;51.078;17.066;2022-12-07T22:46:52;99616.53;;;1.44;75.60
63582;BME280;49727;51.078;17.066;2022-12-07T23:01:52;99613.88;;;1.23;76.08
63582;BME280;49727;51.078;17.066;2022-12-07T23:16:52;99607.88;;;0.89;76.45
63582;BME280;49727;51.078;17.066;2022-12-07T23:31:53;99611.78;;;0.94;76.83
63582;BME280;49727;51.078;17.066;2022-12-07T23:46:53;99620.91;;;1.23;77.34
